sensor_id;sensor_type;location;lat;lon;timestamp;pressure;altitude;pressure_sealevel;temperature;humidity
78337;BME280;67610;51.588;7.002;2023-03-25T00:00:48;99573.22;;;11.09;64.76
78337;BME280;67610;51.588;7.002;2023-03-25T00:03:18;99567.59;;;11.12;64.43
78337;BME280;67610;51.588;7.002;2023-03-25T00:05:44;99563.50;;;11.09;64.50
78337;BME280;67610;51.588;7.002;2023-03-25T00:08:09;99581.72;;;11.11;64.39
78337;BME280;67610;51.588;7.002;2023-03-25T00:10:35;99568.84;;;11.16;63.75
78337;BME280;67610;51.588;7.002;2023-03-25T00:13:00;99577.66;;;11.08;64.13
78337;BME280;67610;51.588;7.002;2023-03-25T00:15:29;99571.56;;;11.08;63.83
78337;BME280;67610;51.588;7.002;2023-03-25T00:17:58;99577.09;;;11.13;63.76
78337;BME280;67610;51.588;7.002;2023-03-25T00:20:24;99568.13;;;11.07;63.89
78337;BME280;67610;51.588;7.002;2023-03-25T00:22:50;99581.28;;;11.07;63.73
78337;BME280;67610;51.588;7.002;2023-03-25T00:25:15;99578.13;;;11.12;63.36
78337;BME280;67610;51.588;7.002;2023-03-25T00:27:43;99582.91;;;11.08;63.60
78337;BME280;67610;51.588;7.002;2023-03-25T00:30:10;99580.75;;;11.12;63.47
78337;BME280;67610;51.588;7.002;2023-03-25T00:32:36;99559.84;;;11.10;63.31
78337;BME280;67610;51.588;7.002;2023-03-25T00:35:01;99570.56;;;11.09;63.34
78337;BME280;67610;51.588;7.002;2023-03-25T00:37:27;99571.56;;;11.08;63.51
78337;BME280;67610;51.588;7.002;2023-03-25T00:39:52;99578.13;;;11.12;63.25
78337;BME280;67610;51.588;7.002;2023-03-25T00:42:18;99564.97;;;11.12;63.19
78337;BME280;67610;51.588;7.002;2023-03-25T00:44:50;99563.50;;;11.09;63.23
78337;BME280;67610;51.588;7.002;2023-03-25T00:47:16;99564.69;;;11.07;63.25
78337;BME280;67610;51.588;7.002;2023-03-25T00:49:43;99555.78;;;11.08;63.00
78337;BME280;67610;51.588;7.002;2023-03-25T00:52:08;99572.09;;;11.03;63.43
78337;BME280;67610;51.588;7.002;2023-03-25T00:54:34;99567.22;;;11.00;63.63
78337;BME280;67610;51.588;7.002;2023-03-25T00:56:59;99566.84;;;11.03;63.57
78337;BME280;67610;51.588;7.002;2023-03-25T00:59:24;99561.78;;;11.02;63.65
78337;BME280;67610;51.588;7.002;2023-03-25T01:01:50;99569.13;;;11.06;63.41
78337;BME280;67610;51.588;7.002;2023-03-25T01:04:17;99565.84;;;11.04;63.42
78337;BME280;67610;51.588;7.002;2023-03-25T01:06:43;99563.13;;;10.98;63.91
78337;BME280;67610;51.588;7.002;2023-03-25T01:09:13;99567.66;;;11.04;63.85
78337;BME280;67610;51.588;7.002;2023-03-25T01:11:40;99557.78;;;11.06;63.42
78337;BME280;67610;51.588;7.002;2023-03-25T01:14:18;99564.50;;;11.08;63.19
78337;BME280;67610;51.588;7.002;2023-03-25T01:16:43;99565.03;;;11.04;63.04
78337;BME280;67610;51.588;7.002;2023-03-25T01:19:10;99571.56;;;11.08;63.00
78337;BME280;67610;51.588;7.002;2023-03-25T01:21:36;99559.06;;;11.10;62.34
78337;BME280;67610;51.588;7.002;2023-03-25T01:24:02;99564.69;;;11.07;62.52
78337;BME280;67610;51.588;7.002;2023-03-25T01:26:28;99563.50;;;11.09;62.88
78337;BME280;67610;51.588;7.002;2023-03-25T01:28:54;99559.69;;;11.12;63.17
78337;BME280;67610;51.588;7.002;2023-03-25T01:31:19;99559.41;;;11.07;63.64
78337;BME280;67610;51.588;7.002;2023-03-25T01:33:47;99559.13;;;11.02;64.15
78337;BME280;67610;51.588;7.002;2023-03-25T01:36:13;99559.69;;;10.97;64.35
78337;BME280;67610;51.588;7.002;2023-03-25T01:38:39;99562.94;;;10.99;64.59
78337;BME280;67610;51.588;7.002;2023-03-25T01:41:06;99552.78;;;10.96;64.23
78337;BME280;67610;51.588;7.002;2023-03-25T01:43:32;99568.13;;;10.93;64.19
78337;BME280;67610;51.588;7.002;2023-03-25T01:45:59;99558.84;;;10.97;63.98
78337;BME280;67610;51.588;7.002;2023-03-25T01:48:30;99552.22;;;11.01;63.63
78337;BME280;67610;51.588;7.002;2023-03-25T01:51:05;99553.25;;;11.00;63.76
78337;BME280;67610;51.588;7.002;2023-03-25T01:53:33;99550.41;;;11.01;63.73
78337;BME280;67610;51.588;7.002;2023-03-25T01:56:01;99556.69;;;11.00;63.85
78337;BME280;67610;51.588;7.002;2023-03-25T01:58:28;99552.97;;;10.95;64.16
78337;BME280;67610;51.588;7.002;2023-03-25T02:00:55;99543.81;;;10.91;64.31
78337;BME280;67610;51.588;7.002;2023-03-25T02:03:23;99546.50;;;10.83;64.67
78337;BME280;67610;51.588;7.002;2023-03-25T02:08:17;99539.09;;;10.86;64.35
78337;BME280;67610;51.588;7.002;2023-03-25T02:10:45;99535.63;;;10.86;64.18
78337;BME280;67610;51.588;7.002;2023-03-25T02:13:12;99535.34;;;10.81;64.22
78337;BME280;67610;51.588;7.002;2023-03-25T02:16:19;99541.25;;;10.83;63.97
78337;BME280;67610;51.588;7.002;2023-03-25T02:19:08;99532.47;;;10.90;63.25
78337;BME280;67610;51.588;7.002;2023-03-25T02:22:01;99548.50;;;10.81;63.15
78337;BME280;67610;51.588;7.002;2023-03-25T02:27:25;99547.13;;;10.70;63.13
78337;BME280;67610;51.588;7.002;2023-03-25T02:35:37;99543.50;;;10.71;62.82
78337;BME280;67610;51.588;7.002;2023-03-25T02:41:10;99546.66;;;10.67;62.50
78337;BME280;67610;51.588;7.002;2023-03-25T02:46:14;99545.31;;;10.71;62.40
78337;BME280;67610;51.588;7.002;2023-03-25T02:48:56;99546.84;;;10.65;62.29
78337;BME280;67610;51.588;7.002;2023-03-25T02:51:28;99543.19;;;10.66;62.56
78337;BME280;67610;51.588;7.002;2023-03-25T02:53:57;99545.47;;;10.69;62.36
78337;BME280;67610;51.588;7.002;2023-03-25T02:56:25;99552.19;;;10.72;61.80
78337;BME280;67610;51.588;7.002;2023-03-25T02:58:52;99539.78;;;10.80;61.70
78337;BME280;67610;51.588;7.002;2023-03-25T03:01:21;99546.59;;;10.75;61.87
78337;BME280;67610;51.588;7.002;2023-03-25T03:03:53;99543.97;;;10.75;61.82
78337;BME280;67610;51.588;7.002;2023-03-25T03:06:20;99531.91;;;10.66;61.79
78337;BME280;67610;51.588;7.002;2023-03-25T03:11:24;99537.78;;;10.68;61.98
78337;BME280;67610;51.588;7.002;2023-03-25T03:16:53;99533.78;;;10.72;61.85
78337;BME280;67610;51.588;7.002;2023-03-25T03:19:33;99533.16;;;10.70;61.85
78337;BME280;67610;51.588;7.002;2023-03-25T03:28:08;99521.66;;;10.71;60.90
78337;BME280;67610;51.588;7.002;2023-03-25T03:35:46;99525.63;;;10.52;61.92
78337;BME280;67610;51.588;7.002;2023-03-25T03:38:18;99521.28;;;10.59;61.56
78337;BME280;67610;51.588;7.002;2023-03-25T03:40:50;99527.16;;;10.61;61.53
78337;BME280;67610;51.588;7.002;2023-03-25T03:43:30;99535.16;;;10.68;61.54
78337;BME280;67610;51.588;7.002;2023-03-25T03:46:01;99536.53;;;10.64;61.86
78337;BME280;67610;51.588;7.002;2023-03-25T03:48:40;99536.88;;;10.61;62.06
78337;BME280;67610;51.588;7.002;2023-03-25T03:51:14;99532.28;;;10.54;62.17
78337;BME280;67610;51.588;7.002;2023-03-25T03:53:57;99533.31;;;10.53;62.49
78337;BME280;67610;51.588;7.002;2023-03-25T03:56:28;99529.66;;;10.54;62.21
78337;BME280;67610;51.588;7.002;2023-03-25T03:59:03;99529.84;;;10.53;62.07
78337;BME280;67610;51.588;7.002;2023-03-25T04:01:46;99527.75;;;10.48;62.22
78337;BME280;67610;51.588;7.002;2023-03-25T04:04:20;99537.56;;;10.54;62.80
78337;BME280;67610;51.588;7.002;2023-03-25T04:09:54;99533.66;;;10.50;63.06
78337;BME280;67610;51.588;7.002;2023-03-25T04:12:30;99540.38;;;10.53;63.28
78337;BME280;67610;51.588;7.002;2023-03-25T04:14:58;99535.00;;;10.46;63.83
78337;BME280;67610;51.588;7.002;2023-03-25T04:17:24;99534.09;;;10.39;64.59
78337;BME280;67610;51.588;7.002;2023-03-25T04:19:49;99529.38;;;10.35;64.57
78337;BME280;67610;51.588;7.002;2023-03-25T04:22:18;99547.47;;;10.30;65.05
78337;BME280;67610;51.588;7.002;2023-03-25T04:24:45;99539.44;;;10.31;64.78
78337;BME280;67610;51.588;7.002;2023-03-25T04:27:15;99531.16;;;10.34;64.90
78337;BME280;67610;51.588;7.002;2023-03-25T04:29:40;99532.44;;;10.38;64.20
78337;BME280;67610;51.588;7.002;2023-03-25T04:32:08;99530.00;;;10.37;64.10
78337;BME280;67610;51.588;7.002;2023-03-25T04:34:34;99533.25;;;10.39;64.44
78337;BME280;67610;51.588;7.002;2023-03-25T04:37:00;99532.81;;;10.35;64.42
78337;BME280;67610;51.588;7.002;2023-03-25T04:39:26;99538.06;;;10.35;64.23
78337;BME280;67610;51.588;7.002;2023-03-25T04:41:54;99530.72;;;10.31;64.44
78337;BME280;67610;51.588;7.002;2023-03-25T04:44:21;99533.88;;;10.26;64.59
78337;BME280;67610;51.588;7.002;2023-03-25T04:46:47;99537.59;;;10.32;64.41
78337;BME280;67610;51.588;7.002;2023-03-25T04:49:19;99530.88;;;10.29;64.38
78337;BME280;67610;51.588;7.002;2023-03-25T04:51:47;99524.63;;;10.30;64.50
78337;BME280;67610;51.588;7.002;2023-03-25T04:54:16;99518.56;;;10.30;64.57
78337;BME280;67610;51.588;7.002;2023-03-25T04:56:41;99519.38;;;10.30;64.28
78337;BME280;67610;51.588;7.002;2023-03-25T04:59:06;99518.75;;;10.28;64.35
78337;BME280;67610;51.588;7.002;2023-03-25T05:01:34;99533.06;;;10.26;64.37
78337;BME280;67610;51.588;7.002;2023-03-25T05:04:03;99517.72;;;10.29;64.05
78337;BME280;67610;51.588;7.002;2023-03-25T05:06:33;99526.00;;;10.26;64.75
78337;BME280;67610;51.588;7.002;2023-03-25T05:09:00;99529.78;;;10.24;64.78
78337;BME280;67610;51.588;7.002;2023-03-25T05:11:27;99531.06;;;10.28;65.37
78337;BME280;67610;51.588;7.002;2023-03-25T05:13:53;99532.72;;;10.29;65.83
78337;BME280;67610;51.588;7.002;2023-03-25T05:16:19;99534.03;;;10.25;65.90
78337;BME280;67610;51.588;7.002;2023-03-25T05:18:44;99540.53;;;10.14;66.56
78337;BME280;67610;51.588;7.002;2023-03-25T05:21:10;99530.38;;;10.11;66.02
78337;BME280;67610;51.588;7.002;2023-03-25T05:23:37;99532.84;;;10.13;66.35
78337;BME280;67610;51.588;7.002;2023-03-25T05:26:03;99525.94;;;10.12;66.32
78337;BME280;67610;51.588;7.002;2023-03-25T05:28:28;99527.88;;;10.10;66.36
78337;BME280;67610;51.588;7.002;2023-03-25T05:30:54;99524.94;;;10.13;65.99
78337;BME280;67610;51.588;7.002;2023-03-25T05:33:20;99531.19;;;10.12;65.99
78337;BME280;67610;51.588;7.002;2023-03-25T05:35:46;99537.06;;;10.14;65.93
78337;BME280;67610;51.588;7.002;2023-03-25T05:38:12;99534.25;;;10.15;65.53
78337;BME280;67610;51.588;7.002;2023-03-25T05:40:40;99524.44;;;10.17;65.50
78337;BME280;67610;51.588;7.002;2023-03-25T05:43:06;99531.28;;;10.18;65.15
78337;BME280;67610;51.588;7.002;2023-03-25T05:45:32;99531.63;;;10.15;65.04
78337;BME280;67610;51.588;7.002;2023-03-25T05:48:00;99525.94;;;10.12;65.22
78337;BME280;67610;51.588;7.002;2023-03-25T05:50:25;99529.84;;;10.16;65.01
78337;BME280;67610;51.588;7.002;2023-03-25T05:52:54;99537.19;;;10.20;64.60
78337;BME280;67610;51.588;7.002;2023-03-25T05:55:21;99535.72;;;10.18;64.64
78337;BME280;67610;51.588;7.002;2023-03-25T05:57:48;99546.25;;;10.18;65.45
78337;BME280;67610;51.588;7.002;2023-03-25T06:00:15;99536.09;;;10.15;64.96
78337;BME280;67610;51.588;7.002;2023-03-25T06:02:44;99545.78;;;10.14;65.32
78337;BME280;67610;51.588;7.002;2023-03-25T06:05:11;99540.66;;;10.21;65.02
78337;BME280;67610;51.588;7.002;2023-03-25T06:07:44;99527.31;;;10.22;64.74
78337;BME280;67610;51.588;7.002;2023-03-25T06:10:15;99545.19;;;10.27;64.20
78337;BME280;67610;51.588;7.002;2023-03-25T06:12:42;99535.97;;;10.31;64.00
78337;BME280;67610;51.588;7.002;2023-03-25T06:15:09;99537.97;;;10.29;64.27
78337;BME280;67610;51.588;7.002;2023-03-25T06:17:35;99530.34;;;10.34;63.96
78337;BME280;67610;51.588;7.002;2023-03-25T06:20:05;99528.72;;;10.33;63.81
78337;BME280;67610;51.588;7.002;2023-03-25T06:22:39;99542.56;;;10.27;64.20
78337;BME280;67610;51.588;7.002;2023-03-25T06:25:05;99544.72;;;10.23;64.49
78337;BME280;67610;51.588;7.002;2023-03-25T06:27:31;99548.81;;;10.26;64.35
78337;BME280;67610;51.588;7.002;2023-03-25T06:30:01;99553.22;;;10.33;64.17
78337;BME280;67610;51.588;7.002;2023-03-25T06:32:27;99547.88;;;10.41;64.19
78337;BME280;67610;51.588;7.002;2023-03-25T06:34:52;99546.34;;;10.47;63.87
78337;BME280;67610;51.588;7.002;2023-03-25T06:37:17;99541.19;;;10.53;63.87
78337;BME280;67610;51.588;7.002;2023-03-25T06:39:43;99537.41;;;10.56;63.54
78337;BME280;67610;51.588;7.002;2023-03-25T06:42:14;99542.19;;;10.52;63.76
78337;BME280;67610;51.588;7.002;2023-03-25T06:44:39;99542.81;;;10.54;63.59
78337;BME280;67610;51.588;7.002;2023-03-25T06:47:05;99552.69;;;10.52;63.51
78337;BME280;67610;51.588;7.002;2023-03-25T06:49:31;99556.63;;;10.57;63.33
78337;BME280;67610;51.588;7.002;2023-03-25T06:51:56;99566.72;;;10.68;62.95
78337;BME280;67610;51.588;7.002;2023-03-25T06:54:22;99562.09;;;10.70;63.32
78337;BME280;67610;51.588;7.002;2023-03-25T06:56:48;99561.38;;;10.76;63.03
78337;BME280;67610;51.588;7.002;2023-03-25T06:59:13;99560.66;;;10.82;63.06
78337;BME280;67610;51.588;7.002;2023-03-25T07:01:39;99565.19;;;10.88;62.75
78337;BME280;67610;51.588;7.002;2023-03-25T07:04:05;99561.50;;;10.97;62.51
78337;BME280;67610;51.588;7.002;2023-03-25T07:06:30;99560.84;;;10.95;62.52
78337;BME280;67610;51.588;7.002;2023-03-25T07:08:56;99558.31;;;11.01;62.16
78337;BME280;67610;51.588;7.002;2023-03-25T07:11:27;99547.97;;;11.00;62.16
78337;BME280;67610;51.588;7.002;2023-03-25T07:13:53;99553.69;;;11.03;62.15
78337;BME280;67610;51.588;7.002;2023-03-25T07:16:22;99555.13;;;11.06;62.22
78337;BME280;67610;51.588;7.002;2023-03-25T07:18:47;99554.06;;;11.15;62.38
78337;BME280;67610;51.588;7.002;2023-03-25T07:21:14;99549.00;;;11.28;61.70
78337;BME280;67610;51.588;7.002;2023-03-25T07:23:39;99561.41;;;11.34;61.59
78337;BME280;67610;51.588;7.002;2023-03-25T07:26:05;99554.22;;;11.57;61.06
78337;BME280;67610;51.588;7.002;2023-03-25T07:28:31;99558.66;;;11.57;61.61
78337;BME280;67610;51.588;7.002;2023-03-25T07:30:56;99563.75;;;11.58;61.16
78337;BME280;67610;51.588;7.002;2023-03-25T07:33:21;99557.94;;;11.63;60.80
78337;BME280;67610;51.588;7.002;2023-03-25T07:35:47;99559.28;;;11.59;61.14
78337;BME280;67610;51.588;7.002;2023-03-25T07:38:12;99574.09;;;11.60;60.99
78337;BME280;67610;51.588;7.002;2023-03-25T07:40:38;99571.00;;;11.56;60.88
78337;BME280;67610;51.588;7.002;2023-03-25T07:43:03;99576.81;;;11.52;60.84
78337;BME280;67610;51.588;7.002;2023-03-25T07:45:29;99574.09;;;11.45;60.81
78337;BME280;67610;51.588;7.002;2023-03-25T07:47:55;99588.63;;;11.41;61.10
78337;BME280;67610;51.588;7.002;2023-03-25T07:50:21;99583.72;;;11.38;60.94
78337;BME280;67610;51.588;7.002;2023-03-25T07:52:47;99582.38;;;11.28;61.02
78337;BME280;67610;51.588;7.002;2023-03-25T07:55:13;99595.63;;;11.19;61.61
78337;BME280;67610;51.588;7.002;2023-03-25T07:57:39;99589.47;;;11.27;61.78
78337;BME280;67610;51.588;7.002;2023-03-25T08:00:06;99588.38;;;11.36;61.40
78337;BME280;67610;51.588;7.002;2023-03-25T08:02:32;99590.28;;;11.42;61.10
78337;BME280;67610;51.588;7.002;2023-03-25T08:04:57;99584.00;;;11.43;60.92
78337;BME280;67610;51.588;7.002;2023-03-25T08:07:22;99585.47;;;11.46;60.45
78337;BME280;67610;51.588;7.002;2023-03-25T08:09:48;99588.25;;;11.59;60.04
78337;BME280;67610;51.588;7.002;2023-03-25T08:12:13;99594.69;;;11.56;59.99
78337;BME280;67610;51.588;7.002;2023-03-25T08:14:38;99608.06;;;11.55;59.65
78337;BME280;67610;51.588;7.002;2023-03-25T08:17:05;99600.50;;;11.52;60.01
78337;BME280;67610;51.588;7.002;2023-03-25T08:19:30;99598.78;;;11.59;59.32
78337;BME280;67610;51.588;7.002;2023-03-25T08:21:55;99604.25;;;11.57;59.12
78337;BME280;67610;51.588;7.002;2023-03-25T08:24:21;99598.34;;;11.55;59.32
78337;BME280;67610;51.588;7.002;2023-03-25T08:26:48;99599.09;;;11.49;59.32
78337;BME280;67610;51.588;7.002;2023-03-25T08:29:14;99589.81;;;11.53;58.73
78337;BME280;67610;51.588;7.002;2023-03-25T08:31:42;99598.97;;;11.57;58.60
78337;BME280;67610;51.588;7.002;2023-03-25T08:34:11;99601.41;;;11.59;58.70
78337;BME280;67610;51.588;7.002;2023-03-25T08:36:36;99604.72;;;11.61;58.43
78337;BME280;67610;51.588;7.002;2023-03-25T08:39:06;99611.41;;;11.63;57.80
78337;BME280;67610;51.588;7.002;2023-03-25T08:41:38;99606.31;;;11.62;56.78
78337;BME280;67610;51.588;7.002;2023-03-25T08:44:05;99598.91;;;11.65;57.60
78337;BME280;67610;51.588;7.002;2023-03-25T08:46:30;99599.81;;;11.72;57.47
78337;BME280;67610;51.588;7.002;2023-03-25T08:48:55;99603.78;;;11.83;56.74
78337;BME280;67610;51.588;7.002;2023-03-25T08:51:21;99594.97;;;11.90;56.24
78337;BME280;67610;51.588;7.002;2023-03-25T08:53:46;99601.94;;;11.98;56.02
78337;BME280;67610;51.588;7.002;2023-03-25T08:56:12;99599.06;;;11.93;56.27
78337;BME280;67610;51.588;7.002;2023-03-25T08:58:38;99618.06;;;11.88;56.70
78337;BME280;67610;51.588;7.002;2023-03-25T09:01:04;99610.59;;;11.77;56.51
78337;BME280;67610;51.588;7.002;2023-03-25T09:03:29;99608.38;;;11.74;56.77
78337;BME280;67610;51.588;7.002;2023-03-25T09:05:55;99615.50;;;11.80;56.95
78337;BME280;67610;51.588;7.002;2023-03-25T09:08:21;99620.44;;;11.83;57.02
78337;BME280;67610;51.588;7.002;2023-03-25T09:10:46;99607.31;;;11.90;56.98
78337;BME280;67610;51.588;7.002;2023-03-25T09:13:12;99616.41;;;11.87;57.01
78337;BME280;67610;51.588;7.002;2023-03-25T09:15:38;99615.84;;;11.92;56.93
78337;BME280;67610;51.588;7.002;2023-03-25T09:18:03;99615.78;;;11.85;57.70
78337;BME280;67610;51.588;7.002;2023-03-25T09:20:29;99605.88;;;11.87;57.89
78337;BME280;67610;51.588;7.002;2023-03-25T09:22:56;99612.13;;;11.86;58.45
78337;BME280;67610;51.588;7.002;2023-03-25T09:25:21;99615.38;;;12.03;58.58
78337;BME280;67610;51.588;7.002;2023-03-25T09:27:47;99609.19;;;12.11;58.36
78337;BME280;67610;51.588;7.002;2023-03-25T09:30:13;99611.31;;;12.22;57.91
78337;BME280;67610;51.588;7.002;2023-03-25T09:32:40;99617.69;;;12.27;57.13
78337;BME280;67610;51.588;7.002;2023-03-25T09:35:05;99622.81;;;12.35;57.28
78337;BME280;67610;51.588;7.002;2023-03-25T09:37:31;99622.66;;;12.37;57.40
78337;BME280;67610;51.588;7.002;2023-03-25T09:39:57;99632.19;;;12.38;58.06
78337;BME280;67610;51.588;7.002;2023-03-25T09:45:05;99627.75;;;12.24;60.24
78337;BME280;67610;51.588;7.002;2023-03-25T09:47:54;99639.34;;;12.08;60.82
78337;BME280;67610;51.588;7.002;2023-03-25T09:50:21;99643.03;;;11.93;61.42
78337;BME280;67610;51.588;7.002;2023-03-25T09:52:55;99631.13;;;11.82;61.84
78337;BME280;67610;51.588;7.002;2023-03-25T09:55:25;99628.50;;;11.82;62.39
78337;BME280;67610;51.588;7.002;2023-03-25T09:58:35;99632.78;;;11.83;63.60
78337;BME280;67610;51.588;7.002;2023-03-25T10:01:24;99641.66;;;11.82;63.34
78337;BME280;67610;51.588;7.002;2023-03-25T10:09:37;99655.50;;;11.69;64.54
78337;BME280;67610;51.588;7.002;2023-03-25T10:12:25;99662.38;;;11.70;65.04
78337;BME280;67610;51.588;7.002;2023-03-25T10:15:22;99665.72;;;11.64;65.52
78337;BME280;67610;51.588;7.002;2023-03-25T10:23:38;99655.66;;;11.97;65.20
78337;BME280;67610;51.588;7.002;2023-03-25T10:28:47;99652.22;;;12.53;64.26
78337;BME280;67610;51.588;7.002;2023-03-25T10:31:16;99656.03;;;12.72;64.64
78337;BME280;67610;51.588;7.002;2023-03-25T10:33:51;99654.53;;;12.84;64.11
78337;BME280;67610;51.588;7.002;2023-03-25T10:36:31;99645.47;;;12.93;62.90
78337;BME280;67610;51.588;7.002;2023-03-25T10:38:58;99647.28;;;13.14;62.57
78337;BME280;67610;51.588;7.002;2023-03-25T10:41:27;99640.38;;;13.41;62.05
78337;BME280;67610;51.588;7.002;2023-03-25T10:43:55;99655.81;;;13.71;61.80
78337;BME280;67610;51.588;7.002;2023-03-25T10:46:33;99654.69;;;13.93;61.52
78337;BME280;67610;51.588;7.002;2023-03-25T10:49:01;99668.53;;;14.02;60.33
78337;BME280;67610;51.588;7.002;2023-03-25T10:51:34;99662.41;;;13.95;59.64
78337;BME280;67610;51.588;7.002;2023-03-25T10:54:00;99656.13;;;13.96;59.36
78337;BME280;67610;51.588;7.002;2023-03-25T10:56:43;99663.41;;;13.87;58.74
78337;BME280;67610;51.588;7.002;2023-03-25T10:59:25;99671.78;;;13.57;60.17
78337;BME280;67610;51.588;7.002;2023-03-25T11:01:54;99663.38;;;13.47;60.78
78337;BME280;67610;51.588;7.002;2023-03-25T11:04:25;99665.47;;;13.30;61.16
78337;BME280;67610;51.588;7.002;2023-03-25T11:06:53;99668.91;;;13.24;61.57
78337;BME280;67610;51.588;7.002;2023-03-25T11:09:26;99661.97;;;13.23;61.65
78337;BME280;67610;51.588;7.002;2023-03-25T11:11:55;99659.63;;;13.35;61.14
78337;BME280;67610;51.588;7.002;2023-03-25T11:14:25;99667.25;;;13.23;61.75
78337;BME280;67610;51.588;7.002;2023-03-25T11:16:56;99654.78;;;13.10;62.04
78337;BME280;67610;51.588;7.002;2023-03-25T11:19:38;99661.59;;;13.05;61.63
78337;BME280;67610;51.588;7.002;2023-03-25T11:22:15;99653.28;;;13.01;61.73
78337;BME280;67610;51.588;7.002;2023-03-25T11:24:46;99647.06;;;12.88;61.70
78337;BME280;67610;51.588;7.002;2023-03-25T11:27:17;99652.66;;;12.78;62.17
78337;BME280;67610;51.588;7.002;2023-03-25T11:29:51;99651.34;;;12.68;62.67
78337;BME280;67610;51.588;7.002;2023-03-25T11:32:22;99643.38;;;12.61;63.12
78337;BME280;67610;51.588;7.002;2023-03-25T11:34:49;99641.84;;;12.73;63.17
78337;BME280;67610;51.588;7.002;2023-03-25T11:37:17;99637.97;;;12.90;62.79
78337;BME280;67610;51.588;7.002;2023-03-25T11:39:51;99636.53;;;13.09;63.70
78337;BME280;67610;51.588;7.002;2023-03-25T11:42:36;99634.50;;;13.11;63.08
78337;BME280;67610;51.588;7.002;2023-03-25T11:45:03;99629.91;;;13.26;63.00
78337;BME280;67610;51.588;7.002;2023-03-25T11:47:37;99628.97;;;13.34;61.99
78337;BME280;67610;51.588;7.002;2023-03-25T11:50:05;99636.50;;;13.37;62.17
78337;BME280;67610;51.588;7.002;2023-03-25T11:52:40;99636.56;;;13.50;62.17
78337;BME280;67610;51.588;7.002;2023-03-25T11:55:24;99621.81;;;13.62;60.88
78337;BME280;67610;51.588;7.002;2023-03-25T11:57:51;99628.94;;;13.68;61.16
78337;BME280;67610;51.588;7.002;2023-03-25T12:05:39;99608.41;;;13.70;59.27
78337;BME280;67610;51.588;7.002;2023-03-25T12:10:37;99611.41;;;13.60;58.50
78337;BME280;67610;51.588;7.002;2023-03-25T12:13:50;99607.75;;;13.55;58.92
78337;BME280;67610;51.588;7.002;2023-03-25T12:19:42;99606.47;;;13.44;56.73
78337;BME280;67610;51.588;7.002;2023-03-25T12:22:19;99615.06;;;13.53;56.40
78337;BME280;67610;51.588;7.002;2023-03-25T12:52:45;99605.00;;;14.30;53.50
78337;BME280;67610;51.588;7.002;2023-03-25T13:06:54;99590.91;;;14.29;52.50
78337;BME280;67610;51.588;7.002;2023-03-25T13:09:28;99594.56;;;14.15;52.68
78337;BME280;67610;51.588;7.002;2023-03-25T13:12:14;99588.47;;;14.28;51.27
78337;BME280;67610;51.588;7.002;2023-03-25T13:14:53;99600.69;;;14.22;51.36
78337;BME280;67610;51.588;7.002;2023-03-25T13:17:28;99598.22;;;14.14;50.89
78337;BME280;67610;51.588;7.002;2023-03-25T13:19:59;99601.47;;;14.16;51.58
78337;BME280;67610;51.588;7.002;2023-03-25T13:22:33;99594.56;;;14.15;51.56
78337;BME280;67610;51.588;7.002;2023-03-25T13:25:03;99596.56;;;14.13;51.59
78337;BME280;67610;51.588;7.002;2023-03-25T13:27:34;99612.44;;;14.13;51.73
78337;BME280;67610;51.588;7.002;2023-03-25T13:30:04;99624.66;;;14.21;51.22
78337;BME280;67610;51.588;7.002;2023-03-25T13:32:37;99607.34;;;14.05;50.87
78337;BME280;67610;51.588;7.002;2023-03-25T13:35:33;99608.97;;;14.06;51.21
78337;BME280;67610;51.588;7.002;2023-03-25T13:38:03;99602.28;;;14.10;51.75
78337;BME280;67610;51.588;7.002;2023-03-25T13:40:40;99613.47;;;14.12;51.92
78337;BME280;67610;51.588;7.002;2023-03-25T13:43:29;99613.03;;;14.09;52.27
78337;BME280;67610;51.588;7.002;2023-03-25T13:46:05;99617.47;;;14.01;53.69
78337;BME280;67610;51.588;7.002;2023-03-25T13:48:55;99620.53;;;13.98;54.79
78337;BME280;67610;51.588;7.002;2023-03-25T13:51:23;99629.47;;;13.91;55.30
78337;BME280;67610;51.588;7.002;2023-03-25T13:53:54;99639.19;;;13.84;56.09
78337;BME280;67610;51.588;7.002;2023-03-25T14:02:12;99648.00;;;13.57;57.72
78337;BME280;67610;51.588;7.002;2023-03-25T14:05:34;99641.06;;;13.56;57.57
78337;BME280;67610;51.588;7.002;2023-03-25T14:10:52;99643.03;;;13.41;57.62
78337;BME280;67610;51.588;7.002;2023-03-25T14:13:40;99640.50;;;13.32;58.39
78337;BME280;67610;51.588;7.002;2023-03-25T14:16:17;99655.16;;;13.35;57.54
78337;BME280;67610;51.588;7.002;2023-03-25T14:18:49;99654.06;;;13.23;58.17
78337;BME280;67610;51.588;7.002;2023-03-25T14:21:30;99652.78;;;13.12;59.03
78337;BME280;67610;51.588;7.002;2023-03-25T14:26:27;99660.75;;;13.19;58.87
78337;BME280;67610;51.588;7.002;2023-03-25T14:28:54;99668.56;;;13.34;58.70
78337;BME280;67610;51.588;7.002;2023-03-25T14:42:07;99656.78;;;13.29;57.84
78337;BME280;67610;51.588;7.002;2023-03-25T14:44:41;99651.31;;;13.38;57.57
78337;BME280;67610;51.588;7.002;2023-03-25T14:53:06;99661.09;;;13.44;57.76
78337;BME280;67610;51.588;7.002;2023-03-25T14:55:40;99651.59;;;13.49;57.34
78337;BME280;67610;51.588;7.002;2023-03-25T15:00:41;99656.19;;;13.34;57.47
78337;BME280;67610;51.588;7.002;2023-03-25T15:03:13;99661.97;;;13.23;56.76
78337;BME280;67610;51.588;7.002;2023-03-25T15:05:43;99678.09;;;13.07;57.37
78337;BME280;67610;51.588;7.002;2023-03-25T15:08:24;99670.38;;;13.05;57.82
78337;BME280;67610;51.588;7.002;2023-03-25T15:11:24;99677.41;;;12.98;59.50
78337;BME280;67610;51.588;7.002;2023-03-25T15:13:56;99672.28;;;12.90;59.89
78337;BME280;67610;51.588;7.002;2023-03-25T15:16:38;99667.03;;;12.97;59.84
78337;BME280;67610;51.588;7.002;2023-03-25T15:19:19;99644.28;;;12.96;59.51
78337;BME280;67610;51.588;7.002;2023-03-25T15:24:30;99643.84;;;12.92;58.88
78337;BME280;67610;51.588;7.002;2023-03-25T15:27:01;99655.63;;;12.90;58.37
78337;BME280;67610;51.588;7.002;2023-03-25T15:29:55;99637.72;;;12.85;58.33
78337;BME280;67610;51.588;7.002;2023-03-25T15:32:48;99649.25;;;12.84;58.66